sensor_id;sensor_type;location;lat;lon;timestamp;pressure;altitude;pressure_sealevel;temperature;humidity
15662;BME280;7931;52.274;10.470;2022-07-29T00:00:09;100903.25;;;15.90;68.00
15662;BME280;7931;52.274;10.470;2022-07-29T00:02:36;100901.41;;;15.81;68.87
15662;BME280;7931;52.274;10.470;2022-07-29T00:05:02;100903.22;;;15.80;69.14
15662;BME280;7931;52.274;10.470;2022-07-29T00:07:28;100907.38;;;15.94;68.47
15662;BME280;7931;52.274;10.470;2022-07-29T00:09:53;100900.56;;;15.90;68.90
15662;BME280;7931;52.274;10.470;2022-07-29T00:12:21;100893.94;;;15.94;68.98
15662;BME280;7931;52.274;10.470;2022-07-29T00:14:46;100890.41;;;16.03;68.31
15662;BME280;7931;52.274;10.470;2022-07-29T00:17:12;100900.03;;;15.96;69.23
15662;BME280;7931;52.274;10.470;2022-07-29T00:19:37;100880.09;;;15.89;68.60
15662;BME280;7931;52.274;10.470;2022-07-29T00:22:02;100885.03;;;15.93;68.91
15662;BME280;7931;52.274;10.470;2022-07-29T00:24:28;100884.47;;;16.00;69.36
15662;BME280;7931;52.274;10.470;2022-07-29T00:26:53;100876.56;;;15.98;69.28
15662;BME280;7931;52.274;10.470;2022-07-29T00:29:18;100877.84;;;16.04;68.79
15662;BME280;7931;52.274;10.470;2022-07-29T00:31:44;100865.13;;;15.96;70.30
15662;BME280;7931;52.274;10.470;2022-07-29T00:34:09;100869.94;;;15.92;70.47
15662;BME280;7931;52.274;10.470;2022-07-29T00:36:55;100858.19;;;15.93;70.27
15662;BME280;7931;52.274;10.470;2022-07-29T00:39:21;100865.66;;;15.90;70.70
15662;BME280;7931;52.274;10.470;2022-07-29T00:41:46;100857.63;;;15.90;71.10
15662;BME280;7931;52.274;10.470;2022-07-29T00:44:11;100865.66;;;15.80;71.60
15662;BME280;7931;52.274;10.470;2022-07-29T00:46:37;100858.44;;;15.81;71.41
15662;BME280;7931;52.274;10.470;2022-07-29T00:49:02;100855.09;;;15.88;70.99
15662;BME280;7931;52.274;10.470;2022-07-29T00:51:28;100853.38;;;15.78;71.32
15662;BME280;7931;52.274;10.470;2022-07-29T00:53:53;100848.56;;;15.72;71.75
15662;BME280;7931;52.274;10.470;2022-07-29T00:56:19;100845.00;;;15.71;72.61
15662;BME280;7931;52.274;10.470;2022-07-29T00:58:46;100849.41;;;15.72;72.44
15662;BME280;7931;52.274;10.470;2022-07-29T01:01:12;100843.47;;;15.68;71.78
15662;BME280;7931;52.274;10.470;2022-07-29T01:03:37;100844.91;;;15.73;71.94
15662;BME280;7931;52.274;10.470;2022-07-29T01:06:03;100843.66;;;15.46;72.95
15662;BME280;7931;52.274;10.470;2022-07-29T01:08:30;100842.00;;;15.55;72.94
15662;BME280;7931;52.274;10.470;2022-07-29T01:10:56;100833.59;;;15.69;71.67
15662;BME280;7931;52.274;10.470;2022-07-29T01:13:22;100836.41;;;15.67;71.57
15662;BME280;7931;52.274;10.470;2022-07-29T01:15:53;100837.13;;;15.70;71.19
15662;BME280;7931;52.274;10.470;2022-07-29T01:18:29;100828.22;;;15.69;70.81
15662;BME280;7931;52.274;10.470;2022-07-29T01:21:21;100825.53;;;15.79;69.85
15662;BME280;7931;52.274;10.470;2022-07-29T01:29:05;100833.44;;;15.71;69.60
15662;BME280;7931;52.274;10.470;2022-07-29T01:34:31;100825.13;;;15.74;69.82
15662;BME280;7931;52.274;10.470;2022-07-29T01:37:06;100817.75;;;15.76;70.98
15662;BME280;7931;52.274;10.470;2022-07-29T01:39:35;100816.81;;;16.06;69.67
15662;BME280;7931;52.274;10.470;2022-07-29T01:42:08;100811.56;;;15.94;69.96
15662;BME280;7931;52.274;10.470;2022-07-29T01:44:39;100811.72;;;15.93;70.59
15662;BME280;7931;52.274;10.470;2022-07-29T01:47:11;100808.75;;;15.86;69.84
15662;BME280;7931;52.274;10.470;2022-07-29T01:49:41;100798.97;;;15.95;69.18
15662;BME280;7931;52.274;10.470;2022-07-29T01:52:13;100800.56;;;16.07;69.14
15662;BME280;7931;52.274;10.470;2022-07-29T01:54:43;100803.50;;;15.85;69.27
15662;BME280;7931;52.274;10.470;2022-07-29T01:57:15;100799.91;;;15.55;71.25
15662;BME280;7931;52.274;10.470;2022-07-29T01:59:43;100798.22;;;15.54;71.09
15662;BME280;7931;52.274;10.470;2022-07-29T02:02:10;100793.94;;;15.42;71.40
15662;BME280;7931;52.274;10.470;2022-07-29T02:04:37;100794.09;;;15.40;71.65
15662;BME280;7931;52.274;10.470;2022-07-29T02:07:06;100800.91;;;15.54;71.12
15662;BME280;7931;52.274;10.470;2022-07-29T02:09:34;100797.97;;;15.57;70.49
15662;BME280;7931;52.274;10.470;2022-07-29T02:12:02;100793.03;;;15.62;71.14
15662;BME280;7931;52.274;10.470;2022-07-29T02:14:40;100795.81;;;15.51;71.06
15662;BME280;7931;52.274;10.470;2022-07-29T02:17:07;100786.94;;;15.60;71.42
15662;BME280;7931;52.274;10.470;2022-07-29T02:19:33;100795.53;;;15.54;71.71
15662;BME280;7931;52.274;10.470;2022-07-29T02:22:01;100790.31;;;15.43;72.21
15662;BME280;7931;52.274;10.470;2022-07-29T02:24:28;100788.47;;;15.43;72.55
15662;BME280;7931;52.274;10.470;2022-07-29T02:26:56;100778.25;;;15.28;72.54
15662;BME280;7931;52.274;10.470;2022-07-29T02:29:25;100774.03;;;15.35;72.58
15662;BME280;7931;52.274;10.470;2022-07-29T02:31:52;100774.69;;;15.17;72.31
15662;BME280;7931;52.274;10.470;2022-07-29T02:34:19;100767.38;;;15.20;72.75
15662;BME280;7931;52.274;10.470;2022-07-29T02:36:46;100761.84;;;15.11;72.71
15662;BME280;7931;52.274;10.470;2022-07-29T02:39:13;100761.44;;;15.16;72.81
15662;BME280;7931;52.274;10.470;2022-07-29T02:41:51;100754.63;;;15.02;72.80
15662;BME280;7931;52.274;10.470;2022-07-29T02:44:19;100757.19;;;15.04;72.54
15662;BME280;7931;52.274;10.470;2022-07-29T02:47:10;100764.78;;;15.08;72.16
15662;BME280;7931;52.274;10.470;2022-07-29T02:49:38;100758.03;;;15.04;72.45
15662;BME280;7931;52.274;10.470;2022-07-29T02:52:12;100757.75;;;15.07;71.68
15662;BME280;7931;52.274;10.470;2022-07-29T02:54:45;100765.53;;;15.10;72.41
15662;BME280;7931;52.274;10.470;2022-07-29T02:57:19;100759.75;;;15.15;71.87
15662;BME280;7931;52.274;10.470;2022-07-29T02:59:47;100754.94;;;15.09;72.71
15662;BME280;7931;52.274;10.470;2022-07-29T03:02:15;100768.91;;;15.12;71.85
15662;BME280;7931;52.274;10.470;2022-07-29T03:04:41;100770.19;;;15.18;71.87
15662;BME280;7931;52.274;10.470;2022-07-29T03:07:08;100770.34;;;15.26;72.15
15662;BME280;7931;52.274;10.470;2022-07-29T03:09:36;100771.56;;;15.12;72.97
15662;BME280;7931;52.274;10.470;2022-07-29T03:12:03;100776.88;;;15.33;71.82
15662;BME280;7931;52.274;10.470;2022-07-29T03:14:30;100775.13;;;15.23;72.36
15662;BME280;7931;52.274;10.470;2022-07-29T03:16:56;100773.84;;;15.17;72.93
15662;BME280;7931;52.274;10.470;2022-07-29T03:19:22;100778.06;;;15.10;72.72
15662;BME280;7931;52.274;10.470;2022-07-29T03:21:48;100768.19;;;15.10;73.28
15662;BME280;7931;52.274;10.470;2022-07-29T03:24:31;100775.06;;;15.03;73.45
15662;BME280;7931;52.274;10.470;2022-07-29T03:26:58;100771.25;;;14.96;73.84
15662;BME280;7931;52.274;10.470;2022-07-29T03:29:24;100766.59;;;14.98;74.64
15662;BME280;7931;52.274;10.470;2022-07-29T03:31:50;100768.56;;;14.96;74.97
15662;BME280;7931;52.274;10.470;2022-07-29T03:34:15;100761.34;;;14.87;75.15
15662;BME280;7931;52.274;10.470;2022-07-29T03:36:40;100758.41;;;14.90;75.17
15662;BME280;7931;52.274;10.470;2022-07-29T03:39:06;100758.66;;;14.87;75.75
15662;BME280;7931;52.274;10.470;2022-07-29T03:41:35;100761.34;;;14.87;76.37
15662;BME280;7931;52.274;10.470;2022-07-29T03:44:02;100758.38;;;14.80;76.40
15662;BME280;7931;52.274;10.470;2022-07-29T03:46:29;100752.47;;;14.86;76.96
15662;BME280;7931;52.274;10.470;2022-07-29T03:49:00;100751.03;;;14.82;76.42
15662;BME280;7931;52.274;10.470;2022-07-29T03:51:26;100742.59;;;14.87;76.77
15662;BME280;7931;52.274;10.470;2022-07-29T03:53:52;100746.84;;;14.89;77.13
15662;BME280;7931;52.274;10.470;2022-07-29T03:56:21;100741.59;;;14.88;77.95
15662;BME280;7931;52.274;10.470;2022-07-29T03:58:49;100747.69;;;14.90;77.22
15662;BME280;7931;52.274;10.470;2022-07-29T04:01:15;100749.53;;;14.89;77.91
15662;BME280;7931;52.274;10.470;2022-07-29T04:03:43;100757.41;;;14.91;77.17
15662;BME280;7931;52.274;10.470;2022-07-29T04:06:11;100754.47;;;14.94;77.39
15662;BME280;7931;52.274;10.470;2022-07-29T04:08:37;100749.22;;;14.93;77.84
15662;BME280;7931;52.274;10.470;2022-07-29T04:11:03;100753.81;;;15.11;77.23
15662;BME280;7931;52.274;10.470;2022-07-29T04:13:30;100756.06;;;15.06;76.95
15662;BME280;7931;52.274;10.470;2022-07-29T04:15:55;100751.53;;;15.07;76.88
15662;BME280;7931;52.274;10.470;2022-07-29T04:18:21;100748.00;;;15.06;78.01
15662;BME280;7931;52.274;10.470;2022-07-29T04:20:46;100751.38;;;15.08;77.83
15662;BME280;7931;52.274;10.470;2022-07-29T04:23:11;100752.53;;;15.06;78.38
15662;BME280;7931;52.274;10.470;2022-07-29T04:25:38;100753.22;;;15.08;78.32
15662;BME280;7931;52.274;10.470;2022-07-29T04:28:04;100754.91;;;14.99;78.96
15662;BME280;7931;52.274;10.470;2022-07-29T04:30:30;100751.34;;;14.99;79.42
15662;BME280;7931;52.274;10.470;2022-07-29T04:32:56;100758.28;;;15.01;79.33
15662;BME280;7931;52.274;10.470;2022-07-29T04:35:22;100755.06;;;15.07;79.05
15662;BME280;7931;52.274;10.470;2022-07-29T04:37:47;100758.47;;;15.09;78.87
15662;BME280;7931;52.274;10.470;2022-07-29T04:40:13;100770.16;;;15.08;79.00
15662;BME280;7931;52.274;10.470;2022-07-29T04:42:39;100767.22;;;15.11;78.26
15662;BME280;7931;52.274;10.470;2022-07-29T04:45:05;100763.84;;;15.09;79.03
15662;BME280;7931;52.274;10.470;2022-07-29T04:47:30;100760.16;;;15.10;79.37
15662;BME280;7931;52.274;10.470;2022-07-29T04:49:56;100773.84;;;15.17;78.64
15662;BME280;7931;52.274;10.470;2022-07-29T04:52:22;100769.50;;;15.26;79.07
15662;BME280;7931;52.274;10.470;2022-07-29T04:54:48;100761.19;;;15.29;79.31
15662;BME280;7931;52.274;10.470;2022-07-29T04:57:14;100764.16;;;15.26;79.24
15662;BME280;7931;52.274;10.470;2022-07-29T04:59:39;100767.97;;;15.23;79.42
15662;BME280;7931;52.274;10.470;2022-07-29T05:02:05;100772.22;;;15.35;79.65
15662;BME280;7931;52.274;10.470;2022-07-29T05:04:30;100767.69;;;15.36;79.09
15662;BME280;7931;52.274;10.470;2022-07-29T05:06:55;100763.31;;;15.35;79.05
15662;BME280;7931;52.274;10.470;2022-07-29T05:09:21;100751.59;;;15.36;79.47
15662;BME280;7931;52.274;10.470;2022-07-29T05:11:46;100759.47;;;15.28;79.86
15662;BME280;7931;52.274;10.470;2022-07-29T05:14:11;100755.84;;;15.29;80.18
15662;BME280;7931;52.274;10.470;2022-07-29T05:16:37;100751.03;;;15.32;80.37
15662;BME280;7931;52.274;10.470;2022-07-29T05:19:04;100747.09;;;15.36;80.20
15662;BME280;7931;52.274;10.470;2022-07-29T05:21:29;100747.22;;;15.35;79.93
15662;BME280;7931;52.274;10.470;2022-07-29T05:23:54;100746.97;;;15.38;80.57
15662;BME280;7931;52.274;10.470;2022-07-29T05:26:20;100739.63;;;15.40;80.95
15662;BME280;7931;52.274;10.470;2022-07-29T05:28:45;100745.81;;;15.40;80.93
15662;BME280;7931;52.274;10.470;2022-07-29T05:31:10;100746.41;;;15.44;81.53
15662;BME280;7931;52.274;10.470;2022-07-29T05:33:36;100743.72;;;15.54;81.13
15662;BME280;7931;52.274;10.470;2022-07-29T05:36:01;100743.72;;;15.54;80.46
15662;BME280;7931;52.274;10.470;2022-07-29T05:38:27;100740.81;;;15.66;81.02
15662;BME280;7931;52.274;10.470;2022-07-29T05:40:52;100746.59;;;15.72;80.94
15662;BME280;7931;52.274;10.470;2022-07-29T05:43:17;100752.38;;;15.77;80.31
15662;BME280;7931;52.274;10.470;2022-07-29T05:45:42;100755.91;;;15.77;79.90
15662;BME280;7931;52.274;10.470;2022-07-29T05:48:08;100756.47;;;15.81;79.86
15662;BME280;7931;52.274;10.470;2022-07-29T05:50:33;100765.22;;;16.02;79.89
15662;BME280;7931;52.274;10.470;2022-07-29T05:52:59;100764.38;;;16.21;79.56
15662;BME280;7931;52.274;10.470;2022-07-29T05:55:24;100764.06;;;16.14;78.98
15662;BME280;7931;52.274;10.470;2022-07-29T05:57:52;100754.72;;;16.28;78.75
15662;BME280;7931;52.274;10.470;2022-07-29T06:00:17;100756.38;;;16.39;77.66
15662;BME280;7931;52.274;10.470;2022-07-29T06:02:42;100759.91;;;16.59;78.45
15662;BME280;7931;52.274;10.470;2022-07-29T06:05:08;100764.22;;;16.69;76.74
15662;BME280;7931;52.274;10.470;2022-07-29T06:07:33;100762.84;;;16.65;75.67
15662;BME280;7931;52.274;10.470;2022-07-29T06:09:59;100780.97;;;16.63;76.23
15662;BME280;7931;52.274;10.470;2022-07-29T06:12:24;100770.47;;;16.70;76.50
15662;BME280;7931;52.274;10.470;2022-07-29T06:14:49;100770.63;;;16.68;76.75
15662;BME280;7931;52.274;10.470;2022-07-29T06:17:16;100760.97;;;16.76;76.81
15662;BME280;7931;52.274;10.470;2022-07-29T06:19:41;100757.59;;;16.74;75.68
15662;BME280;7931;52.274;10.470;2022-07-29T06:22:06;100754.03;;;16.83;75.20
15662;BME280;7931;52.274;10.470;2022-07-29T06:24:32;100751.75;;;16.88;75.18
15662;BME280;7931;52.274;10.470;2022-07-29T06:26:57;100749.13;;;16.96;75.29
15662;BME280;7931;52.274;10.470;2022-07-29T06:29:22;100745.06;;;17.19;74.46
15662;BME280;7931;52.274;10.470;2022-07-29T06:31:48;100747.72;;;17.47;73.51
15662;BME280;7931;52.274;10.470;2022-07-29T06:34:13;100739.56;;;17.57;71.87
15662;BME280;7931;52.274;10.470;2022-07-29T06:36:39;100741.63;;;17.63;70.95
15662;BME280;7931;52.274;10.470;2022-07-29T06:39:08;100747.00;;;17.45;71.33
15662;BME280;7931;52.274;10.470;2022-07-29T06:41:34;100738.63;;;17.48;72.54
15662;BME280;7931;52.274;10.470;2022-07-29T06:43:59;100742.34;;;17.47;71.89
15662;BME280;7931;52.274;10.470;2022-07-29T06:46:25;100743.72;;;17.51;71.23
15662;BME280;7931;52.274;10.470;2022-07-29T06:48:51;100737.50;;;17.51;71.37
15662;BME280;7931;52.274;10.470;2022-07-29T06:51:17;100743.50;;;17.62;71.51
15662;BME280;7931;52.274;10.470;2022-07-29T06:53:43;100744.59;;;17.87;69.70
15662;BME280;7931;52.274;10.470;2022-07-29T06:56:09;100745.50;;;17.96;70.49
15662;BME280;7931;52.274;10.470;2022-07-29T06:58:35;100742.69;;;18.23;68.09
15662;BME280;7931;52.274;10.470;2022-07-29T07:01:03;100749.63;;;18.52;68.65
15662;BME280;7931;52.274;10.470;2022-07-29T07:03:29;100743.69;;;18.48;68.13
15662;BME280;7931;52.274;10.470;2022-07-29T07:05:55;100749.63;;;18.52;66.75
15662;BME280;7931;52.274;10.470;2022-07-29T07:08:21;100752.44;;;18.68;65.47
15662;BME280;7931;52.274;10.470;2022-07-29T07:10:47;100762.63;;;18.83;65.10
15662;BME280;7931;52.274;10.470;2022-07-29T07:13:13;100759.38;;;19.13;63.63
15662;BME280;7931;52.274;10.470;2022-07-29T07:15:39;100760.78;;;19.25;63.51
15662;BME280;7931;52.274;10.470;2022-07-29T07:18:05;100762.19;;;19.54;65.30
15662;BME280;7931;52.274;10.470;2022-07-29T07:20:32;100750.44;;;19.80;62.79
15662;BME280;7931;52.274;10.470;2022-07-29T07:22:57;100749.59;;;19.95;62.56
15662;BME280;7931;52.274;10.470;2022-07-29T07:25:23;100745.72;;;19.90;62.64
15662;BME280;7931;52.274;10.470;2022-07-29T07:27:48;100728.31;;;19.60;60.53
15662;BME280;7931;52.274;10.470;2022-07-29T07:30:14;100729.31;;;19.59;61.61
15662;BME280;7931;52.274;10.470;2022-07-29T07:32:39;100723.78;;;19.93;62.19
15662;BME280;7931;52.274;10.470;2022-07-29T07:35:07;100720.06;;;19.69;60.03
15662;BME280;7931;52.274;10.470;2022-07-29T07:37:33;100722.75;;;19.86;60.09
15662;BME280;7931;52.274;10.470;2022-07-29T07:39:59;100712.63;;;20.12;59.62
15662;BME280;7931;52.274;10.470;2022-07-29T07:42:25;100717.00;;;20.13;59.25
15662;BME280;7931;52.274;10.470;2022-07-29T07:44:50;100722.09;;;20.08;60.26
15662;BME280;7931;52.274;10.470;2022-07-29T07:47:16;100720.38;;;20.32;58.99
15662;BME280;7931;52.274;10.470;2022-07-29T07:49:46;100723.41;;;20.20;58.71
15662;BME280;7931;52.274;10.470;2022-07-29T07:52:12;100727.50;;;20.08;59.01
15662;BME280;7931;52.274;10.470;2022-07-29T07:54:37;100723.09;;;20.07;59.13
15662;BME280;7931;52.274;10.470;2022-07-29T07:57:03;100721.59;;;19.88;59.37
15662;BME280;7931;52.274;10.470;2022-07-29T07:59:28;100721.41;;;19.98;60.81
15662;BME280;7931;52.274;10.470;2022-07-29T08:01:54;100717.19;;;20.12;61.48
15662;BME280;7931;52.274;10.470;2022-07-29T08:04:19;100721.22;;;20.24;59.82
15662;BME280;7931;52.274;10.470;2022-07-29T08:06:45;100715.81;;;20.24;59.49
15662;BME280;7931;52.274;10.470;2022-07-29T08:09:13;100715.06;;;20.71;59.56
15662;BME280;7931;52.274;10.470;2022-07-29T08:11:38;100714.41;;;21.00;57.78
15662;BME280;7931;52.274;10.470;2022-07-29T08:14:04;100713.00;;;20.73;58.70
15662;BME280;7931;52.274;10.470;2022-07-29T08:16:29;100713.91;;;20.49;58.95
15662;BME280;7931;52.274;10.470;2022-07-29T08:18:54;100722.03;;;20.57;59.24
15662;BME280;7931;52.274;10.470;2022-07-29T08:21:22;100720.00;;;20.51;58.51
15662;BME280;7931;52.274;10.470;2022-07-29T08:23:49;100718.31;;;20.42;59.80
15662;BME280;7931;52.274;10.470;2022-07-29T08:26:17;100727.34;;;20.82;59.23
15662;BME280;7931;52.274;10.470;2022-07-29T08:28:44;100730.56;;;20.85;58.26
15662;BME280;7931;52.274;10.470;2022-07-29T08:31:12;100726.69;;;21.19;56.40
15662;BME280;7931;52.274;10.470;2022-07-29T08:33:38;100719.84;;;21.00;57.82
15662;BME280;7931;52.274;10.470;2022-07-29T08:36:04;100726.06;;;21.09;56.94
15662;BME280;7931;52.274;10.470;2022-07-29T08:38:29;100730.59;;;21.47;57.19
15662;BME280;7931;52.274;10.470;2022-07-29T08:40:55;100727.38;;;21.90;55.12
15662;BME280;7931;52.274;10.470;2022-07-29T08:43:20;100724.91;;;22.03;56.35
15662;BME280;7931;52.274;10.470;2022-07-29T08:45:47;100727.56;;;21.65;55.99
15662;BME280;7931;52.274;10.470;2022-07-29T08:48:15;100727.09;;;21.85;56.06
15662;BME280;7931;52.274;10.470;2022-07-29T08:50:42;100723.28;;;22.17;54.50
15662;BME280;7931;52.274;10.470;2022-07-29T08:53:13;100729.59;;;22.09;53.27
15662;BME280;7931;52.274;10.470;2022-07-29T08:55:40;100724.63;;;22.36;53.37
15662;BME280;7931;52.274;10.470;2022-07-29T08:58:07;100726.34;;;22.96;52.34
15662;BME280;7931;52.274;10.470;2022-07-29T09:00:35;100729.59;;;22.62;52.01
15662;BME280;7931;52.274;10.470;2022-07-29T09:03:02;100729.50;;;22.70;51.53
15662;BME280;7931;52.274;10.470;2022-07-29T09:05:29;100728.13;;;22.44;51.19
15662;BME280;7931;52.274;10.470;2022-07-29T09:07:56;100726.53;;;22.50;51.58
15662;BME280;7931;52.274;10.470;2022-07-29T09:10:22;100722.50;;;22.75;51.67
15662;BME280;7931;52.274;10.470;2022-07-29T09:12:48;100728.41;;;22.64;51.44
15662;BME280;7931;52.274;10.470;2022-07-29T09:15:14;100724.91;;;23.15;50.39
15662;BME280;7931;52.274;10.470;2022-07-29T09:17:48;100726.06;;;23.42;49.81
15662;BME280;7931;52.274;10.470;2022-07-29T09:20:20;100730.63;;;23.05;51.06
15662;BME280;7931;52.274;10.470;2022-07-29T09:22:47;100728.56;;;22.48;51.98
15662;BME280;7931;52.274;10.470;2022-07-29T09:25:35;100732.59;;;22.67;52.20
15662;BME280;7931;52.274;10.470;2022-07-29T09:28:12;100722.22;;;22.41;52.16
15662;BME280;7931;52.274;10.470;2022-07-29T09:30:55;100733.16;;;22.47;53.01
15662;BME280;7931;52.274;10.470;2022-07-29T09:33:22;100722.00;;;22.87;52.37
15662;BME280;7931;52.274;10.470;2022-07-29T09:36:08;100721.00;;;23.39;51.06
15662;BME280;7931;52.274;10.470;2022-07-29T09:38:34;100719.19;;;23.09;50.54
15662;BME280;7931;52.274;10.470;2022-07-29T09:41:02;100720.38;;;23.37;51.35
15662;BME280;7931;52.274;10.470;2022-07-29T09:43:27;100712.44;;;23.20;50.19
15662;BME280;7931;52.274;10.470;2022-07-29T09:45:53;100709.56;;;24.07;48.85
15662;BME280;7931;52.274;10.470;2022-07-29T09:48:24;100713.78;;;23.46;49.54
15662;BME280;7931;52.274;10.470;2022-07-29T09:50:50;100711.38;;;24.00;48.93
15662;BME280;7931;52.274;10.470;2022-07-29T09:53:35;100709.16;;;24.67;46.78
15662;BME280;7931;52.274;10.470;2022-07-29T09:56:02;100708.81;;;24.20;48.09
15662;BME280;7931;52.274;10.470;2022-07-29T09:58:28;100704.66;;;24.24;48.26
15662;BME280;7931;52.274;10.470;2022-07-29T10:00:56;100706.97;;;24.49;47.07
15662;BME280;7931;52.274;10.470;2022-07-29T10:03:22;100702.44;;;24.63;47.19
15662;BME280;7931;52.274;10.470;2022-07-29T10:06:09;100701.13;;;24.93;48.70
15662;BME280;7931;52.274;10.470;2022-07-29T10:08:35;100701.78;;;25.02;46.35
15662;BME280;7931;52.274;10.470;2022-07-29T10:11:16;100692.72;;;24.47;48.34
15662;BME280;7931;52.274;10.470;2022-07-29T10:13:45;100692.47;;;24.14;47.54
15662;BME280;7931;52.274;10.470;2022-07-29T10:16:11;100690.81;;;23.91;47.92
15662;BME280;7931;52.274;10.470;2022-07-29T10:18:39;100687.53;;;23.74;49.18
15662;BME280;7931;52.274;10.470;2022-07-29T10:21:04;100689.28;;;23.82;49.85
15662;BME280;7931;52.274;10.470;2022-07-29T10:23:31;100683.72;;;24.18;48.60
15662;BME280;7931;52.274;10.470;2022-07-29T10:25:57;100691.56;;;24.06;49.47
15662;BME280;7931;52.274;10.470;2022-07-29T10:28:22;100681.56;;;24.76;47.73
15662;BME280;7931;52.274;10.470;2022-07-29T10:30:50;100683.31;;;24.56;48.52
15662;BME280;7931;52.274;10.470;2022-07-29T10:34:27;100689.19;;;24.25;48.78
15662;BME280;7931;52.274;10.470;2022-07-29T10:37:07;100684.06;;;24.36;47.24
15662;BME280;7931;52.274;10.470;2022-07-29T10:39:56;100674.28;;;24.42;47.52
15662;BME280;7931;52.274;10.470;2022-07-29T10:42:25;100680.84;;;24.61;47.14
15662;BME280;7931;52.274;10.470;2022-07-29T10:44:53;100679.09;;;24.81;47.42
15662;BME280;7931;52.274;10.470;2022-07-29T10:47:21;100676.06;;;24.63;47.18
15662;BME280;7931;52.274;10.470;2022-07-29T10:49:57;100679.13;;;24.95;47.99
15662;BME280;7931;52.274;10.470;2022-07-29T10:52:23;100671.25;;;24.65;46.85
15662;BME280;7931;52.274;10.470;2022-07-29T10:54:53;100671.31;;;24.78;46.95
15662;BME280;7931;52.274;10.470;2022-07-29T10:59:47;100666.09;;;24.83;47.05
15662;BME280;7931;52.274;10.470;2022-07-29T11:07:23;100666.13;;;24.42;46.54
15662;BME280;7931;52.274;10.470;2022-07-29T11:15:09;100674.00;;;24.72;46.32
15662;BME280;7931;52.274;10.470;2022-07-29T11:18:06;100660.41;;;25.26;46.16
15662;BME280;7931;52.274;10.470;2022-07-29T11:20:43;100668.78;;;25.25;44.87
15662;BME280;7931;52.274;10.470;2022-07-29T11:25:45;100665.03;;;25.39;45.39
15662;BME280;7931;52.274;10.470;2022-07-29T11:28:16;100660.25;;;24.86;45.96
15662;BME280;7931;52.274;10.470;2022-07-29T11:30:52;100653.97;;;24.93;46.90
15662;BME280;7931;52.274;10.470;2022-07-29T11:36:14;100660.63;;;25.31;45.23
15662;BME280;7931;52.274;10.470;2022-07-29T11:38:40;100655.81;;;25.47;44.67
15662;BME280;7931;52.274;10.470;2022-07-29T11:41:25;100650.38;;;25.47;45.92
15662;BME280;7931;52.274;10.470;2022-07-29T11:43:52;100653.94;;;25.67;45.08
15662;BME280;7931;52.274;10.470;2022-07-29T11:46:45;100650.28;;;25.07;46.23
15662;BME280;7931;52.274;10.470;2022-07-29T11:49:19;100653.25;;;25.19;46.60
15662;BME280;7931;52.274;10.470;2022-07-29T11:51:51;100647.22;;;25.36;47.04
15662;BME280;7931;52.274;10.470;2022-07-29T11:54:23;100642.00;;;25.68;46.04
15662;BME280;7931;52.274;10.470;2022-07-29T11:56:49;100643.66;;;25.36;45.85
15662;BME280;7931;52.274;10.470;2022-07-29T11:59:15;100637.78;;;25.46;45.08
15662;BME280;7931;52.274;10.470;2022-07-29T12:01:55;100648.47;;;25.41;45.87
15662;BME280;7931;52.274;10.470;2022-07-29T12:04:20;100639.50;;;25.53;46.13
15662;BME280;7931;52.274;10.470;2022-07-29T12:06:52;100643.22;;;25.19;45.23
15662;BME280;7931;52.274;10.470;2022-07-29T12:09:18;100633.59;;;25.36;43.85
15662;BME280;7931;52.274;10.470;2022-07-29T12:11:45;100633.19;;;25.46;44.00
15662;BME280;7931;52.274;10.470;2022-07-29T12:14:27;100637.63;;;25.80;45.68
15662;BME280;7931;52.274;10.470;2022-07-29T12:16:53;100636.13;;;25.91;42.02
15662;BME280;7931;52.274;10.470;2022-07-29T12:19:18;100633.63;;;25.89;41.17
15662;BME280;7931;52.274;10.470;2022-07-29T12:21:47;100635.31;;;25.84;41.46
15662;BME280;7931;52.274;10.470;2022-07-29T12:24:13;100629.41;;;25.67;41.97
15662;BME280;7931;52.274;10.470;2022-07-29T12:26:53;100629.56;;;26.25;42.47
15662;BME280;7931;52.274;10.470;2022-07-29T12:29:19;100627.69;;;26.32;41.77
15662;BME280;7931;52.274;10.470;2022-07-29T12:31:45;100630.19;;;26.40;40.72
15662;BME280;7931;52.274;10.470;2022-07-29T12:34:13;100634.22;;;26.18;37.80
15662;BME280;7931;52.274;10.470;2022-07-29T12:36:41;100628.53;;;26.20;36.99
15662;BME280;7931;52.274;10.470;2022-07-29T12:39:08;100630.25;;;26.07;37.34
15662;BME280;7931;52.274;10.470;2022-07-29T12:41:34;100629.19;;;26.15;37.45
15662;BME280;7931;52.274;10.470;2022-07-29T12:44:00;100635.91;;;26.26;35.93
15662;BME280;7931;52.274;10.470;2022-07-29T12:46:26;100634.22;;;26.18;36.88
15662;BME280;7931;52.274;10.470;2022-07-29T12:48:52;100634.84;;;26.27;37.42
15662;BME280;7931;52.274;10.470;2022-07-29T12:51:32;100639.47;;;26.13;36.46
15662;BME280;7931;52.274;10.470;2022-07-29T12:56:32;100636.53;;;26.14;35.83
15662;BME280;7931;52.274;10.470;2022-07-29T12:58:58;100636.47;;;26.34;35.21
15662;BME280;7931;52.274;10.470;2022-07-29T13:01:23;100632.66;;;26.62;35.38
15662;BME280;7931;52.274;10.470;2022-07-29T13:03:57;100628.97;;;26.23;35.90
15662;BME280;7931;52.274;10.470;2022-07-29T13:06:40;100630.94;;;26.68;35.54
15662;BME280;7931;52.274;10.470;2022-07-29T13:11:38;100628.03;;;26.69;34.59
15662;BME280;7931;52.274;10.470;2022-07-29T13:14:05;100625.09;;;26.57;36.10
15662;BME280;7931;52.274;10.470;2022-07-29T13:16:31;100627.88;;;26.44;34.84
15662;BME280;7931;52.274;10.470;2022-07-29T13:19:31;100623.97;;;26.78;36.16
15662;BME280;7931;52.274;10.470;2022-07-29T13:21:57;100631.16;;;26.66;35.18
15662;BME280;7931;52.274;10.470;2022-07-29T13:24:22;100627.16;;;26.69;35.19
15662;BME280;7931;52.274;10.470;2022-07-29T13:26:48;100619.69;;;26.51;34.98